Stations météo

réclame
Mon MeteoGroup
Dalwhinnie, Grande-Bretagne (99005): Température de l'air & dewpoint: 14.10.2018 18:00:00 - 20.10.2018 18:00:00 (BST)Dalwhinnie, Grande-Bretagne (99005): Quantités de précipitations: 14.10.2018 18:00:00 - 20.10.2018 18:00:00 (BST)
Date & Time tt [°C] td [°C] rr [mm]
20.10.2018 18:00:00 12,0 11,3 0,0
20.10.2018 17:00:00 12,5 11,4 0,0
20.10.2018 16:00:00 12,1 11,2 0,0
20.10.2018 15:00:00 13,6 10,9 0,0
20.10.2018 14:00:00 14,2 11,0 0,0
20.10.2018 13:00:00 12,7 10,5 0,0
20.10.2018 12:00:00 12,0 10,3 0,0
20.10.2018 11:00:00 12,9 10,0 0,0
20.10.2018 10:00:00 12,7 10,2 0,0
20.10.2018 09:00:00 11,0 9,8 0,0
20.10.2018 08:00:00 10,3 9,4 0,0
20.10.2018 07:00:00 9,8 8,8 0,0
20.10.2018 06:00:00 9,0 8,1 0,0
20.10.2018 05:00:00 8,6 7,6 0,0
20.10.2018 04:00:00 7,9 6,6 0,0
20.10.2018 03:00:00 8,0 5,3 0,0
20.10.2018 02:00:00 7,0 4,2 0,0
20.10.2018 01:00:00 6,3 4,0 0,0
20.10.2018 00:00:00 5,9 4,0 0,0
19.10.2018 23:00:00 5,0 3,3 0,0
19.10.2018 22:00:00 6,2 4,1 0,0
19.10.2018 21:00:00 6,7 4,6 0,0
19.10.2018 20:00:00 6,8 4,5 0,0
19.10.2018 19:00:00 6,7 3,6 0,0
19.10.2018 18:00:00 8,3 4,0 0,0
19.10.2018 17:00:00 9,1 5,0 0,0
19.10.2018 16:00:00 9,7 4,2 0,0
19.10.2018 15:00:00 10,5 4,9 0,0
19.10.2018 14:00:00 10,5 6,4 0,0
19.10.2018 13:00:00 9,8 7,4 0,0
19.10.2018 12:00:00 8,2 6,8 0,0
19.10.2018 11:00:00 8,0 6,4 0,2
19.10.2018 10:00:00 7,2 5,8 0,0
19.10.2018 09:00:00 7,3 5,0 0,0
19.10.2018 08:00:00 7,4 4,2 0,0
19.10.2018 07:00:00 7,7 4,3 0,0
19.10.2018 06:00:00 7,6 3,7 0,0
19.10.2018 05:00:00 7,7 3,5 0,0
19.10.2018 04:00:00 7,2 3,5 0,0
19.10.2018 03:00:00 6,8 3,1 0,0
19.10.2018 02:00:00 6,6 2,9 0,0
19.10.2018 01:00:00 6,6 2,6 0,0
19.10.2018 00:00:00 6,8 2,7 0,0
18.10.2018 23:00:00 6,8 3,7 0,0
18.10.2018 22:00:00 6,9 3,6 0,0
18.10.2018 21:00:00 7,2 3,8 0,0
18.10.2018 20:00:00 7,4 3,9 0,0
18.10.2018 19:00:00 7,9 3,7 0,0
18.10.2018 18:00:00 7,9 3,9 0,0
18.10.2018 17:00:00 8,4 4,7 0,0
18.10.2018 16:00:00 8,3 4,4 0,0
18.10.2018 15:00:00 8,4 4,2 0,0
18.10.2018 14:00:00 8,5 3,4 0,0
18.10.2018 13:00:00 8,4 3,5 0,0
18.10.2018 12:00:00 8,0 3,1 0,0
18.10.2018 11:00:00 7,9 4,1 0,0
18.10.2018 10:00:00 6,6 3,8 0,0
18.10.2018 09:00:00 4,2 2,6 0,0
18.10.2018 08:00:00 4,2 2,8 0,0
18.10.2018 07:00:00 3,8 1,9 0,0
18.10.2018 06:00:00 4,8 4,2 0,0
18.10.2018 05:00:00 4,1 2,4 0,0
18.10.2018 04:00:00 1,6 0,9 0,0
18.10.2018 03:00:00 1,6 0,3 0,0
18.10.2018 02:00:00 2,3 1,3 0,0
18.10.2018 01:00:00 2,6 1,4 0,0
18.10.2018 00:00:00 5,2 2,0 0,0
17.10.2018 23:00:00 5,6 3,0 0,0
17.10.2018 22:00:00 6,1 3,3 0,0
17.10.2018 21:00:00 6,5 3,4 0,0
17.10.2018 20:00:00 6,7 2,4 0,0
17.10.2018 19:00:00 7,0 3,3 0,0
17.10.2018 18:00:00 7,3 3,5 0,0
17.10.2018 17:00:00 7,9 3,8 0,0
17.10.2018 16:00:00 8,9 3,2 0,0
17.10.2018 15:00:00 8,8 3,7 0,0
17.10.2018 14:00:00 8,9 3,6 0,0
17.10.2018 13:00:00 8,3 3,9 0,0
17.10.2018 12:00:00 7,6 4,0 0,0
17.10.2018 11:00:00 7,4 4,5 0,0
17.10.2018 10:00:00 7,1 4,9 0,2
17.10.2018 09:00:00 7,1 5,6 0,0
17.10.2018 08:00:00 7,1 6,2 0,0
17.10.2018 07:00:00 7,7 6,1 0,0
17.10.2018 06:00:00 7,5 5,5 0,0
17.10.2018 05:00:00 7,4 5,3 0,0
17.10.2018 04:00:00 8,0 6,3 0,0
17.10.2018 03:00:00 7,9 5,5 0,0
17.10.2018 02:00:00 8,6 6,2 0,0
17.10.2018 01:00:00 9,5 7,8 1,0
17.10.2018 00:00:00 9,7 8,4 0,6
16.10.2018 23:00:00 9,8 8,5 0,0
16.10.2018 22:00:00 9,8 8,4 0,0
16.10.2018 21:00:00 9,8 8,4 0,0
16.10.2018 20:00:00 9,7 8,3 0,0
16.10.2018 19:00:00 9,5 8,0 0,0
16.10.2018 18:00:00 9,6 8,0 0,0
16.10.2018 17:00:00 9,7 8,5 0,0
16.10.2018 16:00:00 9,6 8,7 0,0
16.10.2018 15:00:00 9,7 8,9 0,2
16.10.2018 14:00:00 9,4 8,4 0,0
16.10.2018 13:00:00 10,2 6,2 0,0
16.10.2018 12:00:00 9,9 5,3 0,0
16.10.2018 11:00:00 9,4 5,6 0,0
16.10.2018 10:00:00 9,0 5,6 0,0
16.10.2018 09:00:00 8,1 5,6 0,0
16.10.2018 08:00:00 7,8 4,9 0,0
16.10.2018 07:00:00 7,0 4,2 0,0
16.10.2018 06:00:00 6,8 3,8 0,0
16.10.2018 05:00:00 6,5 3,8 0,0
16.10.2018 04:00:00 6,7 3,8 0,0
16.10.2018 03:00:00 6,7 3,4 0,0
16.10.2018 02:00:00 6,8 2,9 0,0
16.10.2018 01:00:00 6,6 3,3 0,0
16.10.2018 00:00:00 6,7 3,7 0,0
15.10.2018 23:00:00 7,0 3,8 0,0
15.10.2018 22:00:00 5,8 4,2 0,0
15.10.2018 21:00:00 4,4 3,1 0,0
15.10.2018 20:00:00 3,9 2,6 0,0
15.10.2018 19:00:00 4,2 2,0 0,0
15.10.2018 18:00:00 7,3 4,5 0,0
15.10.2018 17:00:00 9,0 4,3 0,0
15.10.2018 16:00:00 10,8 4,3 0,0
15.10.2018 15:00:00 10,1 4,1 0,0
15.10.2018 14:00:00 10,9 4,1 0,0
15.10.2018 13:00:00 10,4 4,6 0,0
15.10.2018 12:00:00 9,2 4,3 0,0
15.10.2018 11:00:00 8,1 4,4 0,0
15.10.2018 10:00:00 7,0 3,9 0,0
15.10.2018 09:00:00 4,4 2,0 0,0
15.10.2018 08:00:00 5,4 2,9 0,0
15.10.2018 07:00:00 3,5 2,8 0,0
15.10.2018 06:00:00 2,8 2,2 0,0
15.10.2018 05:00:00 2,6 2,1 0,0
15.10.2018 04:00:00 2,7 2,0 0,0
15.10.2018 03:00:00 2,7 1,1 0,0
15.10.2018 02:00:00 3,8 2,9 0,0
15.10.2018 01:00:00 3,0 2,5 0,0
15.10.2018 00:00:00 2,3 1,9 0,0
14.10.2018 23:00:00 2,1 1,6 0,0
14.10.2018 22:00:00 2,2 1,2 0,0
14.10.2018 21:00:00 2,3 1,6 0,0
14.10.2018 20:00:00 2,9 1,7 0,0
14.10.2018 19:00:00 3,7 2,3 0,0
14.10.2018 18:00:00 6,6 3,8 0,0

tt = Température de l'air
td = dewpoint
rr = Quantités de précipitations

stations d'obs. à proximité